Time;durP1;ratioP1;P1;durP2;ratioP2;P2;SDS_P1;SDS_P2;PMS_P1;PMS_P2;Temp;Humidity;BMP_temperature;BMP_pressure;BME280_temperature;BME280_humidity;BME280_pressure;Samples;Min_cycle;Max_cycle;Signal;HPM_P1;HPM_P2
2023/10/01 00:02:57;;;;;;;;;;;;;;;11.86;100.00;96668.78;10348033;28;1991;-76
2023/10/01 00:08:01;;;;;;;;;;;;;;;11.84;100.00;96669.06;10343143;28;1955;-74
2023/10/01 00:13:04;;;;;;;;;;;;;;;11.77;100.00;96673.84;10345766;28;2820;-76
2023/10/01 00:18:07;;;;;;;;;;;;;;;11.73;100.00;96664.63;10355670;28;1872;-75
2023/10/01 00:23:09;;;;;;;;;;;;;;;11.66;100.00;96672.13;10356575;28;2184;-75
2023/10/01 00:28:12;;;;;;;;;;;;;;;11.62;100.00;96668.31;10354768;28;1971;-76
2023/10/01 00:33:15;;;;;;;;;;;;;;;11.62;100.00;96662.94;10350179;28;1948;-74
2023/10/01 00:38:19;;;;;;;;;;;;;;;11.57;100.00;96666.41;10360954;28;2220;-75
2023/10/01 00:43:22;;;;;;;;;;;;;;;11.53;100.00;96664.50;10362143;28;4559;-75
2023/10/01 00:48:24;;;;;;;;;;;;;;;11.51;100.00;96651.25;10355353;28;1971;-74
2023/10/01 00:53:27;;;;;;;;;;;;;;;11.46;100.00;96653.94;10354111;28;1851;-74
2023/10/01 00:58:29;;;;;;;;;;;;;;;11.49;100.00;96663.38;10347357;28;2574;-74
2023/10/01 01:03:33;;;;;;;;;;;;;;;11.50;100.00;96654.22;10367419;28;2070;-74
2023/10/01 01:08:46;;;;;;;;;;;;;;;11.46;100.00;96653.94;10346792;28;1977;-74
2023/10/01 01:13:50;;;;;;;;;;;;;;;11.49;100.00;96647.22;10352519;28;1864;-74
2023/10/01 01:18:54;;;;;;;;;;;;;;;11.42;100.00;96650.13;10349459;28;1948;-73
2023/10/01 01:23:57;;;;;;;;;;;;;;;11.40;100.00;96660.34;10361052;28;1915;-74
2023/10/01 01:29:16;;;;;;;;;;;;;;;11.35;100.00;96647.66;10355761;28;1966;-76
2023/10/01 01:34:19;;;;;;;;;;;;;;;11.30;100.00;96650.31;10354275;28;1971;-73
2023/10/01 01:39:26;;;;;;;;;;;;;;;11.30;100.00;96647.59;10353768;28;2069;-74
2023/10/01 01:44:31;;;;;;;;;;;;;;;11.29;100.00;96650.56;10352992;28;4551;-74
2023/10/01 01:49:33;;;;;;;;;;;;;;;11.29;100.00;96646.00;10356868;28;1931;-75
2023/10/01 01:54:39;;;;;;;;;;;;;;;11.33;100.00;96644.41;10355830;28;1968;-75
2023/10/01 01:59:43;;;;;;;;;;;;;;;11.40;100.00;96643.41;10353057;28;1983;-74
2023/10/01 02:04:59;;;;;;;;;;;;;;;11.36;100.00;96638.50;10347871;28;2153;-76
2023/10/01 02:10:04;;;;;;;;;;;;;;;11.50;100.00;96632.69;10365662;28;1963;-74
2023/10/01 02:15:08;;;;;;;;;;;;;;;11.48;100.00;96635.66;10356256;28;2041;-75
2023/10/01 02:20:27;;;;;;;;;;;;;;;11.49;100.00;96631.06;10337644;28;2019;-74
2023/10/01 02:25:37;;;;;;;;;;;;;;;11.46;100.00;96640.47;10344620;28;1989;-74
2023/10/01 02:30:41;;;;;;;;;;;;;;;11.47;100.00;96635.91;10345381;28;2519;-77
2023/10/01 02:35:46;;;;;;;;;;;;;;;11.41;100.00;96628.88;10346629;28;1896;-75
2023/10/01 02:40:48;;;;;;;;;;;;;;;11.37;100.00;96631.25;10367204;28;4523;-74
2023/10/01 02:45:51;;;;;;;;;;;;;;;11.40;100.00;96638.00;10361303;28;2052;-75
2023/10/01 02:50:54;;;;;;;;;;;;;;;11.43;100.00;96621.31;10352979;28;1940;-74
2023/10/01 02:56:02;;;;;;;;;;;;;;;11.40;100.00;96621.84;10348174;28;1966;-73
2023/10/01 03:01:08;;;;;;;;;;;;;;;11.35;100.00;96628.00;10356802;28;2027;-74
2023/10/01 03:06:10;;;;;;;;;;;;;;;11.30;100.00;96623.38;10350386;28;1998;-73
2023/10/01 03:11:16;;;;;;;;;;;;;;;11.23;100.00;96625.47;10346306;28;2090;-73
2023/10/01 03:27:03;;;;;;;;;;;;;;;11.06;100.00;96630.16;10367036;28;2201;-74
2023/10/01 03:32:27;;;;;;;;;;;;;;;10.94;100.00;96619.59;10350156;28;2030;-73
2023/10/01 03:37:29;;;;;;;;;;;;;;;10.89;100.00;96626.81;10355172;28;1999;-74
2023/10/01 03:42:33;;;;;;;;;;;;;;;10.82;100.00;96622.44;10345570;28;4674;-76
2023/10/01 03:47:36;;;;;;;;;;;;;;;10.74;100.00;96619.38;10344297;28;1976;-75
2023/10/01 03:52:40;;;;;;;;;;;;;;;10.67;100.00;96627.66;10355377;28;2038;-75
2023/10/01 03:57:56;;;;;;;;;;;;;;;10.63;100.00;96629.25;10351571;28;1907;-76
2023/10/01 04:03:00;;;;;;;;;;;;;;;10.63;100.00;96631.94;10356792;28;2730;-75
2023/10/01 04:08:07;;;;;;;;;;;;;;;10.59;100.00;96628.09;10361240;28;1904;-75
2023/10/01 04:13:13;;;;;;;;;;;;;;;10.68;100.00;96628.47;10354767;28;1987;-74
2023/10/01 04:18:23;;;;;;;;;;;;;;;10.73;100.00;96629.31;10423411;28;1912;-75
2023/10/01 04:23:29;;;;;;;;;;;;;;;10.69;100.00;96627.41;10364369;28;1989;-74
2023/10/01 04:28:34;;;;;;;;;;;;;;;10.65;100.00;96631.66;10352162;28;1940;-75
2023/10/01 04:33:37;;;;;;;;;;;;;;;10.62;100.00;96634.84;10357767;28;1947;-75
2023/10/01 04:38:41;;;;;;;;;;;;;;;10.59;100.00;96628.09;10354896;28;1982;-75
2023/10/01 04:43:51;;;;;;;;;;;;;;;10.55;100.00;96630.47;10349666;28;4665;-75
2023/10/01 04:48:55;;;;;;;;;;;;;;;10.54;100.00;96628.84;10354015;28;2757;-74
2023/10/01 04:54:00;;;;;;;;;;;;;;;10.48;100.00;96626.38;10349260;28;1990;-75
2023/10/01 04:59:02;;;;;;;;;;;;;;;10.45;100.00;96630.38;10347476;28;2005;-75
2023/10/01 05:04:05;;;;;;;;;;;;;;;10.44;100.00;96641.38;10353670;28;1947;-75
2023/10/01 05:09:08;;;;;;;;;;;;;;;10.44;100.00;96642.19;10357444;28;2011;-75
2023/10/01 05:14:12;;;;;;;;;;;;;;;10.46;100.00;96637.38;10346744;28;1957;-75
2023/10/01 05:19:14;;;;;;;;;;;;;;;10.44;100.00;96642.19;10354360;28;1967;-76
2023/10/01 05:24:31;;;;;;;;;;;;;;;10.49;100.00;96647.59;10366384;28;1964;-74
2023/10/01 05:29:34;;;;;;;;;;;;;;;10.56;100.00;96647.44;10348559;28;2294;-75
2023/10/01 05:34:38;;;;;;;;;;;;;;;10.65;100.00;96655.88;10344049;28;2041;-76
2023/10/01 05:45:14;;;;;;;;;;;;;;;10.88;100.00;96647.50;10557970;27;1961;-76
2023/10/01 05:50:18;;;;;;;;;;;;;;;11.07;100.00;96651.47;10555984;28;1964;-76
2023/10/01 05:55:22;;;;;;;;;;;;;;;11.24;100.00;96640.56;10558776;28;1957;-72
2023/10/01 06:00:27;;;;;;;;;;;;;;;11.46;100.00;96639.69;10559128;28;1913;-73
2023/10/01 06:05:42;;;;;;;;;;;;;;;11.64;100.00;96642.78;10555748;28;1890;-73
2023/10/01 06:10:46;;;;;;;;;;;;;;;11.81;100.00;96639.94;10558396;28;1956;-74
2023/10/01 06:15:48;;;;;;;;;;;;;;;12.04;100.00;96643.31;10560653;28;2067;-75
2023/10/01 06:20:53;;;;;;;;;;;;;;;12.24;100.00;96627.22;10556397;28;1980;-75
2023/10/01 06:25:56;;;;;;;;;;;;;;;12.37;100.00;96637.53;10553482;28;1964;-75
2023/10/01 06:30:58;;;;;;;;;;;;;;;12.64;100.00;96641.94;10556158;28;2837;-76
2023/10/01 06:41:18;;;;;;;;;;;;;;;13.05;100.00;96656.34;10550970;28;2053;-73
2023/10/01 06:46:22;;;;;;;;;;;;;;;13.21;100.00;96657.19;10553847;28;1952;-75
2023/10/01 06:51:24;;;;;;;;;;;;;;;13.43;100.00;96665.88;10556643;28;2035;-75
2023/10/01 06:56:29;;;;;;;;;;;;;;;13.53;100.00;96665.84;10526401;28;2045;-76
2023/10/01 07:01:35;;;;;;;;;;;;;;;13.82;100.00;96665.31;10530641;28;1944;-75
2023/10/01 07:06:38;;;;;;;;;;;;;;;14.01;100.00;96671.75;10519755;28;1952;-75
2023/10/01 07:11:41;;;;;;;;;;;;;;;14.25;100.00;96663.03;10534118;28;1805;-77
2023/10/01 07:16:44;;;;;;;;;;;;;;;14.44;100.00;96666.78;10525922;28;2777;-75
2023/10/01 07:21:56;;;;;;;;;;;;;;;14.70;100.00;96659.41;10523577;28;2069;-76
2023/10/01 07:27:03;;;;;;;;;;;;;;;14.87;100.00;96661.72;10522175;28;1889;-75
2023/10/01 07:32:07;;;;;;;;;;;;;;;15.06;100.00;96665.41;10524968;28;1896;-74
2023/10/01 07:37:10;;;;;;;;;;;;;;;15.27;100.00;96659.84;10518715;28;2045;-76
2023/10/01 07:42:17;;;;;;;;;;;;;;;15.50;100.00;96663.75;10517893;28;4723;-78
2023/10/01 07:47:32;;;;;;;;;;;;;;;15.81;100.00;96654.31;10527081;28;1905;-79
2023/10/01 07:52:36;;;;;;;;;;;;;;;16.08;100.00;96663.81;10521255;28;2178;-77
2023/10/01 07:57:47;;;;;;;;;;;;;;;16.17;100.00;96670.22;10525961;28;1940;-77
2023/10/01 08:03:28;;;;;;;;;;;;;;;16.49;100.00;96664.19;10526237;28;2828;-78
2023/10/01 08:08:35;;;;;;;;;;;;;;;16.80;100.00;96669.28;10528122;28;1960;-76
2023/10/01 08:13:38;;;;;;;;;;;;;;;17.01;100.00;96659.75;10531390;28;1992;-76
2023/10/01 08:18:42;;;;;;;;;;;;;;;17.34;100.00;96663.31;10535958;28;1924;-77
2023/10/01 08:23:48;;;;;;;;;;;;;;;17.53;100.00;96655.16;10533258;28;1975;-77
2023/10/01 08:28:57;;;;;;;;;;;;;;;17.59;100.00;96653.16;10529711;28;2000;-77
2023/10/01 08:34:22;;;;;;;;;;;;;;;18.07;100.00;96651.00;10528864;28;1982;-77
2023/10/01 08:39:47;;;;;;;;;;;;;;;18.02;100.00;96646.47;10530011;28;1909;-79
2023/10/01 08:44:50;;;;;;;;;;;;;;;18.12;100.00;96650.91;10521317;28;2039;-78
2023/10/01 08:50:15;;;;;;;;;;;;;;;18.29;100.00;96655.75;10530171;28;2856;-78
2023/10/01 08:55:18;;;;;;;;;;;;;;;18.47;100.00;96662.22;10522899;28;1974;-78
2023/10/01 09:00:21;;;;;;;;;;;;;;;18.42;100.00;96665.03;10523416;28;1965;-79
2023/10/01 09:05:26;;;;;;;;;;;;;;;18.48;100.00;96663.84;10524644;28;1914;-78
2023/10/01 09:10:38;;;;;;;;;;;;;;;18.74;100.00;96658.72;10522065;28;1878;-77
2023/10/01 09:15:43;;;;;;;;;;;;;;;18.93;100.00;96661.31;10520496;28;2087;-79
2023/10/01 09:21:06;;;;;;;;;;;;;;;19.14;100.00;96649.66;10519491;28;1842;-78
2023/10/01 09:26:08;;;;;;;;;;;;;;;19.02;100.00;96645.84;10519773;28;1950;-78
2023/10/01 09:31:26;;;;;;;;;;;;;;;19.17;100.00;96649.06;10521964;28;2104;-78
2023/10/01 09:36:33;;;;;;;;;;;;;;;19.10;100.00;96648.66;10518695;28;2753;-76
2023/10/01 09:41:36;;;;;;;;;;;;;;;19.36;100.00;96654.34;10519466;28;4725;-78
2023/10/01 09:46:39;;;;;;;;;;;;;;;19.43;100.00;96657.44;10521552;28;1880;-77
2023/10/01 09:51:42;;;;;;;;;;;;;;;19.50;100.00;96656.22;10517316;28;1971;-78
2023/10/01 09:56:47;;;;;;;;;;;;;;;19.70;100.00;96655.75;10516611;28;1962;-77
2023/10/01 10:01:52;;;;;;;;;;;;;;;19.65;100.00;96650.41;10524420;28;1909;-78
2023/10/01 10:07:00;;;;;;;;;;;;;;;19.64;100.00;96648.81;10521915;28;1842;-78
2023/10/01 10:12:07;;;;;;;;;;;;;;;20.03;100.00;96636.34;10520117;28;2041;-78
2023/10/01 10:17:18;;;;;;;;;;;;;;;19.98;100.00;96649.03;10520228;28;3104;-78
2023/10/01 10:22:25;;;;;;;;;;;;;;;19.88;100.00;96645.75;10514318;28;1909;-77
2023/10/01 10:27:28;;;;;;;;;;;;;;;19.93;100.00;96648.34;10517995;28;1886;-77
2023/10/01 10:32:31;;;;;;;;;;;;;;;20.07;100.00;96648.28;10525665;28;1889;-79
2023/10/01 10:37:34;;;;;;;;;;;;;;;20.04;100.00;96644.25;10562666;27;1855;-79
2023/10/01 10:42:36;;;;;;;;;;;;;;;20.04;100.00;96635.22;10526094;28;1909;-78
2023/10/01 10:47:39;;;;;;;;;;;;;;;19.87;100.00;96639.50;10527272;28;1839;-78
2023/10/01 10:52:41;;;;;;;;;;;;;;;20.01;100.00;96641.34;10524185;28;1918;-79
2023/10/01 10:57:48;;;;;;;;;;;;;;;20.01;100.00;96638.59;10533000;28;1906;-78
2023/10/01 11:02:56;;;;;;;;;;;;;;;19.86;100.00;96631.63;10521422;28;2961;-78
2023/10/01 11:07:59;;;;;;;;;;;;;;;19.90;100.00;96617.03;10524995;28;1878;-77
2023/10/01 11:13:02;;;;;;;;;;;;;;;19.91;100.00;96615.94;10530316;28;1583;-79
2023/10/01 11:18:09;;;;;;;;;;;;;;;20.16;100.00;96608.16;10528937;28;1901;-77
2023/10/01 11:23:12;;;;;;;;;;;;;;;20.40;100.00;96596.84;10520756;28;1939;-79
2023/10/01 11:28:14;;;;;;;;;;;;;;;20.31;100.00;96596.84;10526472;28;1886;-78
2023/10/01 11:33:29;;;;;;;;;;;;;;;20.47;100.00;96587.09;10528407;28;1933;-77
2023/10/01 11:38:32;;;;;;;;;;;;;;;20.57;100.00;96596.16;10527132;28;1882;-78
2023/10/01 11:43:34;;;;;;;;;;;;;;;20.60;100.00;96577.19;10517898;28;4567;-79
2023/10/01 11:48:56;;;;;;;;;;;;;;;20.79;100.00;96571.41;10526178;28;2765;-79
2023/10/01 11:54:08;;;;;;;;;;;;;;;20.85;100.00;96570.16;10518850;28;1866;-77
2023/10/01 11:59:17;;;;;;;;;;;;;;;20.62;100.00;96568.69;10521598;28;1922;-77
2023/10/01 12:04:24;;;;;;;;;;;;;;;20.69;100.00;96560.81;10520300;28;2121;-79
2023/10/01 12:09:39;;;;;;;;;;;;;;;20.59;100.00;96552.91;10526975;28;1870;-79
2023/10/01 12:14:55;;;;;;;;;;;;;;;20.62;100.00;96546.84;10527346;28;1913;-79
2023/10/01 12:19:58;;;;;;;;;;;;;;;20.58;100.00;96543.13;10529221;28;1827;-78
2023/10/01 12:25:02;;;;;;;;;;;;;;;20.73;100.00;96546.19;10526935;28;1997;-77
2023/10/01 12:30:05;;;;;;;;;;;;;;;20.77;100.00;96549.09;10521083;28;1819;-78
2023/10/01 12:35:18;;;;;;;;;;;;;;;20.92;100.00;96545.06;10522412;28;2789;-78
2023/10/01 12:40:22;;;;;;;;;;;;;;;20.99;100.00;96529.81;10519352;28;4638;-78
2023/10/01 12:45:27;;;;;;;;;;;;;;;21.08;100.00;96532.53;10525432;28;1914;-78
2023/10/01 12:50:30;;;;;;;;;;;;;;;21.03;100.00;96525.31;10519743;28;1978;-78
2023/10/01 12:55:32;;;;;;;;;;;;;;;21.07;100.00;96517.28;10521998;28;2018;-77
2023/10/01 13:00:44;;;;;;;;;;;;;;;21.14;100.00;96505.84;10517792;28;1875;-78
2023/10/01 13:05:49;;;;;;;;;;;;;;;21.18;100.00;96506.78;10521516;28;1992;-78
2023/10/01 13:10:52;;;;;;;;;;;;;;;21.17;100.00;96502.44;10523816;28;2121;-77
2023/10/01 13:15:55;;;;;;;;;;;;;;;21.15;100.00;96504.72;10520102;28;1944;-78
2023/10/01 13:21:06;;;;;;;;;;;;;;;21.16;100.00;96498.91;10518531;28;2967;-78
2023/10/01 13:26:14;;;;;;;;;;;;;;;21.12;100.00;96494.41;10518447;28;2093;-77
2023/10/01 13:31:40;;;;;;;;;;;;;;;20.99;100.00;96491.56;10522863;28;2142;-77
2023/10/01 14:08:43;;;;;;;;;;;;;;;21.20;100.00;96458.88;10526073;28;2739;-77
2023/10/01 14:13:46;;;;;;;;;;;;;;;21.10;100.00;96463.88;10531430;28;1815;-77
2023/10/01 14:19:13;;;;;;;;;;;;;;;21.13;100.00;96460.50;10529898;28;2159;-77
2023/10/01 14:24:25;;;;;;;;;;;;;;;21.15;100.00;96456.31;10532600;28;1918;-78
2023/10/01 14:29:33;;;;;;;;;;;;;;;21.10;100.00;96445.53;10526381;28;1827;-77
2023/10/01 14:34:36;;;;;;;;;;;;;;;21.18;100.00;96452.09;10526719;28;1892;-77
2023/10/01 14:39:39;;;;;;;;;;;;;;;21.02;100.00;96449.91;10530117;28;1831;-77
2023/10/01 14:44:44;;;;;;;;;;;;;;;21.01;100.00;96442.03;10528566;28;4655;-77
2023/10/01 14:49:47;;;;;;;;;;;;;;;20.90;100.00;96441.56;10533858;28;3076;-77
2023/10/01 14:54:49;;;;;;;;;;;;;;;20.94;100.00;96436.25;10530101;28;1863;-78
2023/10/01 14:59:56;;;;;;;;;;;;;;;20.84;100.00;96431.91;10527002;28;1946;-78
2023/10/01 15:05:07;;;;;;;;;;;;;;;20.72;100.00;96432.56;10525973;28;1989;-77
2023/10/01 15:10:10;;;;;;;;;;;;;;;20.68;100.00;96444.47;10539575;28;2027;-77
2023/10/01 15:15:18;;;;;;;;;;;;;;;20.67;100.00;96440.13;10524272;28;1890;-77
2023/10/01 15:20:49;;;;;;;;;;;;;;;20.73;100.00;96441.56;10522037;28;1823;-79
2023/10/01 15:25:52;;;;;;;;;;;;;;;20.68;100.00;96436.28;10522688;28;1975;-79
2023/10/01 15:30:55;;;;;;;;;;;;;;;20.70;100.00;96434.81;10526685;28;1868;-78
2023/10/01 15:36:05;;;;;;;;;;;;;;;20.45;100.00;96427.44;10526975;28;2870;-78
2023/10/01 15:41:09;;;;;;;;;;;;;;;20.55;100.00;96432.59;10533558;28;1968;-78
2023/10/01 15:46:15;;;;;;;;;;;;;;;20.47;100.00;96439.63;10528065;28;2224;-78
2023/10/01 15:51:26;;;;;;;;;;;;;;;20.37;100.00;96437.22;10522374;28;1960;-79
2023/10/01 15:56:33;;;;;;;;;;;;;;;20.28;100.00;96441.03;10526353;28;2105;-78
2023/10/01 16:01:46;;;;;;;;;;;;;;;20.25;100.00;96447.94;10526646;28;2015;-77
2023/10/01 16:06:49;;;;;;;;;;;;;;;20.16;100.00;96439.72;10520747;28;1961;-76
2023/10/01 16:11:54;;;;;;;;;;;;;;;20.09;100.00;96449.50;10521960;28;1843;-79
2023/10/01 16:17:15;;;;;;;;;;;;;;;19.91;100.00;96449.50;10526758;28;1851;-77
2023/10/01 16:22:20;;;;;;;;;;;;;;;19.64;100.00;96449.69;10524712;28;2617;-78
2023/10/01 16:27:25;;;;;;;;;;;;;;;19.52;100.00;96463.09;10525616;28;1984;-79
2023/10/01 16:32:27;;;;;;;;;;;;;;;19.41;100.00;96452.47;10521274;28;1856;-77
2023/10/01 16:37:30;;;;;;;;;;;;;;;19.22;100.00;96457.34;10521823;28;1929;-77
2023/10/01 16:42:33;;;;;;;;;;;;;;;18.95;100.00;96461.00;10526089;28;1890;-77
2023/10/01 16:47:38;;;;;;;;;;;;;;;18.73;100.00;96459.09;10524008;28;1931;-79
2023/10/01 16:52:41;;;;;;;;;;;;;;;18.55;100.00;96477.19;10518320;28;1899;-77
2023/10/01 16:57:47;;;;;;;;;;;;;;;18.48;100.00;96476.00;10521257;28;1941;-78
2023/10/01 17:02:49;;;;;;;;;;;;;;;18.21;100.00;96464.06;10522849;28;1874;-78
2023/10/01 17:07:52;;;;;;;;;;;;;;;17.99;100.00;96472.94;10523817;28;2700;-78
2023/10/01 17:12:55;;;;;;;;;;;;;;;17.80;100.00;96486.66;10519001;28;1857;-77
2023/10/01 17:17:57;;;;;;;;;;;;;;;17.68;100.00;96478.16;10521484;28;1823;-77
2023/10/01 17:23:00;;;;;;;;;;;;;;;17.47;100.00;96482.38;10518711;28;1913;-79
2023/10/01 17:28:02;;;;;;;;;;;;;;;17.34;100.00;96483.16;10521822;28;1920;-77
2023/10/01 17:33:10;;;;;;;;;;;;;;;17.19;100.00;96476.91;10518635;28;1818;-77
2023/10/01 17:38:13;;;;;;;;;;;;;;;17.04;100.00;96488.03;10521264;28;2125;-78
2023/10/01 17:43:16;;;;;;;;;;;;;;;16.96;100.00;96499.56;10518651;28;4807;-77
2023/10/01 17:48:18;;;;;;;;;;;;;;;16.88;100.00;96498.34;10517642;28;1878;-77
2023/10/01 17:53:20;;;;;;;;;;;;;;;16.75;100.00;96510.75;10517387;28;2686;-78
2023/10/01 17:58:23;;;;;;;;;;;;;;;16.67;100.00;96514.13;10516867;28;1898;-79
2023/10/01 18:03:30;;;;;;;;;;;;;;;16.58;100.00;96504.19;10517757;28;1965;-78
2023/10/01 18:08:35;;;;;;;;;;;;;;;16.55;100.00;96505.59;10520060;28;1934;-78
2023/10/01 18:13:37;;;;;;;;;;;;;;;16.44;100.00;96517.69;10515958;28;1906;-77
2023/10/01 18:18:40;;;;;;;;;;;;;;;16.35;100.00;96508.59;10520211;28;2013;-77
2023/10/01 18:23:42;;;;;;;;;;;;;;;16.28;100.00;96503.53;10520235;28;1934;-76
2023/10/01 18:28:46;;;;;;;;;;;;;;;16.23;100.00;96508.22;10519450;28;1988;-78
2023/10/01 18:33:49;;;;;;;;;;;;;;;16.15;100.00;96502.34;10521967;28;2161;-77
2023/10/01 18:38:52;;;;;;;;;;;;;;;16.11;100.00;96506.75;10516371;28;2399;-79
2023/10/01 18:43:54;;;;;;;;;;;;;;;15.97;100.00;96513.13;10517657;28;4824;-79
2023/10/01 18:48:57;;;;;;;;;;;;;;;15.85;100.00;96513.56;10518551;28;1957;-78
2023/10/01 18:53:59;;;;;;;;;;;;;;;15.80;100.00;96510.91;10522628;28;2117;-78
2023/10/01 18:59:05;;;;;;;;;;;;;;;15.74;100.00;96517.50;10531221;28;2044;-78
2023/10/01 19:04:10;;;;;;;;;;;;;;;15.62;100.00;96515.97;10527524;28;1918;-77
2023/10/01 19:09:20;;;;;;;;;;;;;;;15.59;100.00;96529.28;10522124;28;1949;-77
2023/10/01 19:14:23;;;;;;;;;;;;;;;15.52;100.00;96531.50;10525218;28;2062;-77
2023/10/01 19:19:27;;;;;;;;;;;;;;;15.45;100.00;96534.53;10520726;28;1921;-76
2023/10/01 19:24:34;;;;;;;;;;;;;;;15.37;100.00;96535.16;10524779;28;2359;-78
2023/10/01 19:29:37;;;;;;;;;;;;;;;15.30;100.00;96532.78;10526597;28;1933;-78
2023/10/01 19:34:43;;;;;;;;;;;;;;;15.25;100.00;96526.63;10517807;28;2080;-77
2023/10/01 19:39:46;;;;;;;;;;;;;;;15.22;100.00;96527.19;10525708;28;1917;-78
2023/10/01 19:44:48;;;;;;;;;;;;;;;15.07;100.00;96518.09;10519412;28;4679;-78
2023/10/01 19:49:51;;;;;;;;;;;;;;;15.03;100.00;96519.78;10523425;28;1953;-78
2023/10/01 19:54:53;;;;;;;;;;;;;;;14.92;100.00;96531.75;10513180;28;2046;-77
2023/10/01 19:59:55;;;;;;;;;;;;;;;14.90;100.00;96531.25;10526869;28;1871;-76
2023/10/01 20:04:58;;;;;;;;;;;;;;;14.83;100.00;96528.06;10520870;28;1914;-77
2023/10/01 20:10:11;;;;;;;;;;;;;;;14.80;100.00;96536.72;10525477;28;2563;-77
2023/10/01 20:15:20;;;;;;;;;;;;;;;14.75;100.00;96540.25;10524957;28;1819;-76
2023/10/01 20:20:23;;;;;;;;;;;;;;;14.77;100.00;96540.00;10527599;28;1839;-76
2023/10/01 20:25:26;;;;;;;;;;;;;;;14.70;100.00;96542.22;10524909;28;2033;-78
2023/10/01 20:30:32;;;;;;;;;;;;;;;14.63;100.00;96537.09;10526243;28;1863;-78
2023/10/01 20:35:40;;;;;;;;;;;;;;;14.60;100.00;96522.25;10520855;28;1875;-77
2023/10/01 20:40:46;;;;;;;;;;;;;;;14.53;100.00;96532.56;10522011;28;4654;-76
2023/10/01 20:45:49;;;;;;;;;;;;;;;14.51;100.00;96534.75;10521584;28;1918;-77
2023/10/01 20:50:54;;;;;;;;;;;;;;;14.37;100.00;96520.19;10518262;28;1938;-77
2023/10/01 20:55:56;;;;;;;;;;;;;;;14.25;100.00;96520.53;10523341;28;2491;-76
2023/10/01 21:00:59;;;;;;;;;;;;;;;14.18;100.00;96509.19;10520545;28;1913;-77
2023/10/01 21:06:04;;;;;;;;;;;;;;;14.23;100.00;96522.69;10526652;28;1980;-77
2023/10/01 21:11:07;;;;;;;;;;;;;;;14.09;100.00;96529.81;10523956;28;1835;-78
2023/10/01 21:16:09;;;;;;;;;;;;;;;14.21;100.00;96524.88;10524837;28;1945;-76
2023/10/01 21:21:12;;;;;;;;;;;;;;;14.02;100.00;96527.41;10551652;27;1906;-78
2023/10/01 21:26:22;;;;;;;;;;;;;;;14.01;100.00;96531.19;10525736;28;1972;-77
2023/10/01 21:31:24;;;;;;;;;;;;;;;13.96;100.00;96533.91;10521805;28;1996;-77
2023/10/01 21:36:27;;;;;;;;;;;;;;;13.98;100.00;96533.63;10520169;28;1963;-76
2023/10/01 21:41:34;;;;;;;;;;;;;;;13.90;100.00;96518.78;10525279;28;4694;-76
2023/10/01 21:46:38;;;;;;;;;;;;;;;13.77;100.00;96524.78;10518417;28;2073;-77
2023/10/01 21:51:42;;;;;;;;;;;;;;;13.84;100.00;96516.38;10523425;28;1954;-79
2023/10/01 21:56:45;;;;;;;;;;;;;;;13.58;100.00;96515.66;10520693;28;2731;-78
2023/10/01 22:01:48;;;;;;;;;;;;;;;13.43;100.00;96509.22;10517961;28;1882;-78
2023/10/01 22:06:51;;;;;;;;;;;;;;;13.34;100.00;96516.25;10521543;28;1930;-76
2023/10/01 22:11:54;;;;;;;;;;;;;;;13.27;100.00;96513.03;10523044;28;1835;-78
2023/10/01 22:16:57;;;;;;;;;;;;;;;13.17;100.00;96505.72;10524670;28;1886;-76
2023/10/01 22:21:59;;;;;;;;;;;;;;;13.19;100.00;96508.16;10520111;28;1929;-76
2023/10/01 22:27:03;;;;;;;;;;;;;;;13.10;100.00;96499.78;10525702;28;1938;-77
2023/10/01 22:32:06;;;;;;;;;;;;;;;13.12;100.00;96497.63;10527808;28;1890;-78
2023/10/01 22:37:10;;;;;;;;;;;;;;;13.06;100.00;96487.13;10531021;28;1898;-77
2023/10/01 22:42:22;;;;;;;;;;;;;;;12.96;100.00;96496.81;10526856;28;4796;-75
2023/10/01 22:47:29;;;;;;;;;;;;;;;12.94;100.00;96493.59;10526043;28;1909;-76
2023/10/01 22:52:34;;;;;;;;;;;;;;;12.91;100.00;96487.91;10523373;28;1922;-77
2023/10/01 22:57:43;;;;;;;;;;;;;;;12.83;100.00;96494.66;10526366;28;2018;-76
2023/10/01 23:02:48;;;;;;;;;;;;;;;12.81;100.00;96486.03;10528826;28;1831;-76
2023/10/01 23:07:51;;;;;;;;;;;;;;;12.83;100.00;96486.56;10519615;28;1902;-77
2023/10/01 23:13:06;;;;;;;;;;;;;;;12.76;100.00;96483.34;10526289;28;2013;-76
2023/10/01 23:18:10;;;;;;;;;;;;;;;12.66;100.00;96488.72;10517343;28;1921;-77
2023/10/01 23:23:15;;;;;;;;;;;;;;;12.69;100.00;96491.69;10519302;28;1944;-77
2023/10/01 23:28:17;;;;;;;;;;;;;;;12.70;100.00;96479.03;10529523;28;2379;-77
2023/10/01 23:33:20;;;;;;;;;;;;;;;12.68;100.00;96476.59;10521492;28;2110;-76
2023/10/01 23:38:29;;;;;;;;;;;;;;;12.63;100.00;96476.59;10521868;28;1823;-77
2023/10/01 23:48:57;;;;;;;;;;;;;;;12.56;100.00;96475.25;10521272;28;1902;-77
2023/10/01 23:54:02;;;;;;;;;;;;;;;12.52;100.00;96477.66;10525706;28;1897;-76
